METARs

EEEI - Ämari Air Base

EEEI 210452Z 18002KT 0500 R24/1200D FG VV002 01/01 Q1023 TEMPO 0

EEKA - Kärdla

EEKA 200750Z 20004KT 9999 FEW035 07/07 Q1020

EEKE - Kuressaare

EEKE 210850Z 22009KT 180V240 9999 SCT022 11/08 Q1023

EEPU - Pärnu

EEPU 210850Z 15004KT 110V220 9999 FEW002 08/08 Q1024

EETN - Lennart Meri Tallinn

EETN 210850Z 20007KT 8000 2600E BR BKN002 05/05 Q1023 NOSIG

EETU - Tartu

EETU 210850Z AUTO 21006KT 9999 NCD 07/07 Q1024

Sign In

ATC Booking

currently no ATC Bookings...